Flight Track Log - Related Links

Times and Time Zones

All times are in EDT time to prevent confusion due to time zone crossing. See the UAL4295 flight status page for this flight to view local times or setup timezone preferences in your user account.

Time Position Orientation Groundspeed Altitude Reporting Facility
EDT Latitude Longitude Course Direction KTS MPH feet Rate Location/Type
Sat 06:59:32 PM 40.6500 -74.1833 276° West 180 207 1,600  Level New York TRACON
Sat 07:00:32 PM 40.6500 -74.2333 270° West 202 232 3,200 2,262 Climbing New York TRACON
Sat 07:02:00 PM 40.7453 -74.6480 277° West  Level FlightAware Approximate
Sat 07:02:35 PM 40.6767 -74.3994 282° West 228 262 8,500  Level New York Center
Sat 07:03:00 PM 40.7557 -74.7732 276° West  Level FlightAware Approximate
Sat 07:03:34 PM 40.6911 -74.4769 284° West 241 277 10,700  Level New York Center
Sat 07:04:00 PM 40.7653 -74.8985 276° West  Level FlightAware Approximate
Sat 07:04:34 PM 40.7125 -74.5875 284° West 265 305 11,700  Level New York Center
Sat 07:05:35 PM 40.7297 -74.6953 282° West 300 345 13,800 1,721 Climbing New York Center
Sat 07:06:36 PM 40.7492 -74.8006 284° West 300 345 15,200 1,500 Climbing New York Center
Sat 07:07:35 PM 40.7681 -74.9139 282° West 300 345 16,800 1,462 Climbing New York Center
Sat 07:08:35 PM 40.7869 -75.0247 283° West 306 352 18,100 1,190 Climbing New York Center
Sat 07:09:36 PM 40.8019 -75.1269 281° West 312 359 19,200 1,190 Climbing New York Center
Sat 07:10:36 PM 40.7875 -75.2414 261° West 312 359 20,500 1,220 Climbing New York Center
Sat 07:11:34 PM 40.7706 -75.3553 259° West 312 359 21,600 1,068 Climbing New York Center
Sat 07:12:34 PM 40.7372 -75.4597 247° West 312 359 22,600 942 Climbing New York Center
Sat 07:13:35 PM 40.6997 -75.5667 245° Southwest 317 365 23,500 942 Climbing New York Center
Sat 07:14:35 PM 40.6597 -75.6733 244° Southwest 329 379 24,500 942 Climbing New York Center
Sat 07:15:36 PM 40.6203 -75.7744 243° Southwest 329 379 25,400 942 Climbing New York Center
Sat 07:16:36 PM 40.5803 -75.8808 244° Southwest 329 379 26,400 1,068 Climbing New York Center
Sat 07:17:34 PM 40.5358 -75.9867 241° Southwest 329 379 27,500 1,050 Climbing New York Center
Sat 07:18:36 PM 40.5003 -76.0878 245° Southwest 329 379 28,500 1,000 Climbing New York Center
Sat 07:19:34 PM 40.4603 -76.1856 242° Southwest 323 372 29,500 1,017 Climbing New York Center
Sat 07:20:34 PM 40.4222 -76.2864 244° Southwest 318 366 30,500 992 Climbing New York Center
Sat 07:21:35 PM 40.3844 -76.3814 242° Southwest 313 360 31,500 992 Climbing New York Center
Sat 07:22:35 PM 40.3483 -76.4819 245° Southwest 308 354 32,500 992 Climbing New York Center
Sat 07:23:36 PM 40.3128 -76.5717 243° Southwest 301 346 33,500 992 Climbing New York Center
Sat 07:24:36 PM 40.2750 -76.6583 240° Southwest 295 339 34,500 950 Climbing New York Center
Sat 07:25:36 PM 40.2394 -76.7478 243° Southwest 284 327 35,400 345 Climbing New York Center
Sat 07:28:57 PM 40.1128 -77.0647 242° Southwest 301 346 36,000 138 Climbing Cleveland Center
Sat 07:29:57 PM 40.0722 -77.1644 242° Southwest 316 364 36,000  Level Cleveland Center
Sat 07:30:57 PM 40.0272 -77.2725 241° Southwest 326 375 36,000  Level Cleveland Center
Sat 07:31:57 PM 39.9844 -77.3803 243° Southwest 337 388 36,000  Level Cleveland Center
Sat 07:32:57 PM 39.9586 -77.4953 254° West 331 381 36,000  Level Cleveland Center
Sat 07:33:57 PM 39.9642 -77.6250 273° West 338 389 36,000  Level Cleveland Center
Sat 07:34:57 PM 39.9675 -77.7578 272° West 354 407 36,000  Level Cleveland Center
Sat 07:35:57 PM 39.9706 -77.8903 272° West 365 420 36,000  Level Cleveland Center
Sat 07:36:57 PM 39.9758 -78.0203 273° West 365 420 36,000  Level Cleveland Center
Sat 07:37:57 PM 39.9786 -78.1528 272° West 365 420 36,000  Level Cleveland Center
Sat 07:38:57 PM 39.9814 -78.2828 272° West 365 420 36,000  Level Cleveland Center
Sat 07:39:57 PM 39.9819 -78.4128 270° West 365 420 36,000  Level Cleveland Center
Sat 07:40:57 PM 39.9842 -78.5428 271° West 365 420 36,000  Level Cleveland Center
Sat 07:41:57 PM 39.9886 -78.6781 272° West 365 420 36,000  Level Cleveland Center
Sat 07:42:57 PM 39.9931 -78.8136 272° West 365 420 36,000  Level Cleveland Center
Sat 07:43:57 PM 39.9992 -78.9461 273° West 365 420 36,000  Level Cleveland Center
Sat 07:44:57 PM 40.0069 -79.0681 275° West 370 426 36,000  Level Cleveland Center
Sat 07:45:57 PM 40.0089 -79.2036 271° West 370 426 36,000  Level Cleveland Center
Sat 07:46:57 PM 40.0125 -79.3389 272° West 375 432 36,000  Level Cleveland Center
Sat 07:47:57 PM 40.0181 -79.4797 273° West 380 437 36,000  Level Cleveland Center
Sat 07:48:57 PM 40.0233 -79.6153 273° West 380 437 36,000  Level Cleveland Center
Sat 07:49:57 PM 40.0244 -79.7508 271° West 380 437 36,000  Level Cleveland Center
Sat 07:50:57 PM 40.0297 -79.8836 273° West 380 437 36,000  Level Cleveland Center
Sat 07:51:57 PM 40.0303 -80.0192 270° West 380 437 36,000  Level Cleveland Center
Sat 07:52:57 PM 40.0350 -80.1572 273° West 385 443 36,000  Level Cleveland Center
Sat 07:53:57 PM 40.0375 -80.2956 271° West 385 443 36,000  Level Cleveland Center
Sat 07:54:57 PM 40.0400 -80.4311 271° West 379 436 36,000  Level Cleveland Center
Sat 07:55:57 PM 40.0422 -80.5667 271° West 379 436 36,000  Level Cleveland Center
Sat 07:56:57 PM 40.0442 -80.7050 271° West 384 442 36,000  Level Cleveland Center
Sat 07:58:51 PM 40.0456 -80.9839 270° West 384 442 36,000  Level Indianapolis Center
Sat 07:59:52 PM 40.0475 -81.1253 271° West 385 443 36,000  Level Indianapolis Center
Sat 08:00:53 PM 40.0492 -81.2656 271° West 385 443 36,000  Level Indianapolis Center
Sat 08:01:54 PM 40.0506 -81.4089 271° West 388 447 36,000  Level Indianapolis Center
Sat 08:02:55 PM 40.0522 -81.5511 271° West 388 447 36,000  Level Indianapolis Center
Sat 08:03:55 PM 40.0531 -81.6933 270° West 388 447 36,000  Level Indianapolis Center
Sat 08:04:56 PM 40.0544 -81.8336 271° West 387 445 36,000  Level Indianapolis Center
Sat 08:05:57 PM 40.0556 -81.9764 271° West 389 448 36,000 -49 Level Indianapolis Center
Sat 08:06:58 PM 40.0561 -82.1169 270° West 386 444 35,900  Descending Indianapolis Center
Sat 08:07:59 PM 40.0567 -82.2547 270° West 379 436 36,000 49 Climbing Indianapolis Center
Sat 08:09:00 PM 40.0569 -82.3919 270° West 375 432 36,000  Level Indianapolis Center
Sat 08:10:01 PM 40.0569 -82.5294 270° West 376 433 36,000  Level Indianapolis Center
Sat 08:11:02 PM 40.0567 -82.6667 270° West 376 433 36,000  Level Indianapolis Center
Sat 08:12:03 PM 40.0569 -82.8067 270° West 382 440 36,000  Level Indianapolis Center
Sat 08:13:04 PM 40.0558 -82.9450 269° West 381 438 36,000  Level Indianapolis Center
Sat 08:14:04 PM 40.0561 -83.0844 270° West 382 440 36,000  Level Indianapolis Center
Sat 08:15:05 PM 40.0544 -83.2258 269° West 387 445 36,000  Level Indianapolis Center
Sat 08:16:06 PM 40.0542 -83.3647 270° West 385 443 36,000  Level Indianapolis Center
Sat 08:17:07 PM 40.0533 -83.5042 270° West 386 444 36,000  Level Indianapolis Center
Sat 08:18:08 PM 40.0522 -83.6450 269° West 389 448 36,000  Level Indianapolis Center
Sat 08:19:09 PM 40.0500 -83.7850 269° West 386 444 36,000  Level Indianapolis Center
Sat 08:20:10 PM 40.0489 -83.9506 270° West 389 448 36,000  Level Indianapolis Center
Sat 08:21:11 PM 40.0475 -84.0903 269° West 385 443 36,000  Level Indianapolis Center
Sat 08:22:12 PM 40.0464 -84.2311 269° West 386 444 36,000  Level Indianapolis Center
Sat 08:23:13 PM 40.0436 -84.3703 269° West 382 440 36,000  Level Indianapolis Center
Sat 08:24:14 PM 40.0419 -84.5097 269° West 382 440 36,000  Level Indianapolis Center
Sat 08:25:15 PM 40.0383 -84.6478 268° West 379 436 36,000  Level Indianapolis Center
Sat 08:26:15 PM 40.0367 -84.7869 269° West 380 437 36,000  Level Indianapolis Center
Sat 08:27:16 PM 40.0325 -84.9261 268° West 380 437 36,000  Level Indianapolis Center
Sat 08:28:17 PM 40.0306 -85.0658 269° West 383 441 36,000  Level Indianapolis Center
Sat 08:29:18 PM 40.0267 -85.2067 268° West 385 443 36,000  Level Indianapolis Center
Sat 08:30:19 PM 40.0236 -85.3486 268° West 386 444 36,000  Level Indianapolis Center
Sat 08:31:20 PM 40.0197 -85.4869 268° West 381 438 36,000  Level Indianapolis Center
Sat 08:32:20 PM 40.0181 -85.6250 269° West 378 435 36,000  Level Indianapolis Center
Sat 08:32:45 PM 40.0167 -85.6714 268° West 378 435 36,000  Level Indianapolis Center
Sat 08:33:46 PM 40.0111 -85.8094 267° West 378 435 36,000  Level Indianapolis Center
Sat 08:34:47 PM 40.0069 -85.9569 268° West 383 441 36,000  Level Indianapolis Center
Sat 08:35:47 PM 40.0033 -86.0981 268° West 387 445 36,000  Level Indianapolis Center
Sat 08:36:03 PM 40.0019 -86.1392 267° West 385 443 36,000  Level Chicago Center
Sat 08:37:04 PM 39.9969 -86.2817 267° West 390 449 36,000  Level Chicago Center
Sat 08:37:49 PM 39.9947 -86.3806 268° West 390 449 36,000  Level Indianapolis Center
Sat 08:38:50 PM 39.9892 -86.5231 267° West 391 450 36,000  Level Indianapolis Center
Sat 08:39:51 PM 39.9856 -86.6642 268° West 391 450 36,000  Level Indianapolis Center
Sat 08:40:52 PM 39.9800 -86.8067 267° West 392 451 36,000  Level Indianapolis Center
Sat 08:41:52 PM 39.9750 -86.9483 267° West 392 451 36,000  Level Indianapolis Center
Sat 08:42:53 PM 39.9692 -87.0908 267° West 393 452 36,000  Level Indianapolis Center
Sat 08:43:54 PM 39.9628 -87.2328 267° West 392 451 36,000  Level Indianapolis Center
Sat 08:44:55 PM 39.9575 -87.3750 267° West 392 451 36,000  Level Indianapolis Center
Sat 08:45:55 PM 39.9519 -87.5147 267° West 387 445 36,000  Level Indianapolis Center
Sat 08:46:56 PM 39.9450 -87.6547 266° West 387 445 36,000  Level Indianapolis Center
Sat 08:47:57 PM 39.9392 -87.7953 267° West 388 447 36,000  Level Indianapolis Center
Sat 08:48:57 PM 39.9322 -87.9647 267° West 389 448 36,000  Level Indianapolis Center
Sat 08:49:18 PM 39.9311 -87.9836 266° West 391 450 36,000  Level Kansas City Center
Sat 08:50:19 PM 39.9225 -88.1275 266° West 395 455 36,000  Level Kansas City Center
Sat 08:51:20 PM 39.9172 -88.2964 268° West 393 452 36,000  Level Chicago Center
Sat 08:52:22 PM 39.9100 -88.4381 266° West 393 452 36,000  Level Chicago Center
Sat 08:53:23 PM 39.9031 -88.5831 266° West 399 459 36,000  Level Chicago Center
Sat 08:54:24 PM 39.8950 -88.7239 266° West 392 451 36,000  Level Chicago Center
Sat 08:55:24 PM 39.8867 -88.8667 266° West 393 452 36,000  Level Kansas City Center
Sat 08:56:24 PM 39.8794 -89.0094 266° West 395 455 36,000  Level Kansas City Center
Sat 08:57:26 PM 39.8706 -89.1517 265° West 394 453 36,000  Level Kansas City Center
Sat 08:58:25 PM 39.8622 -89.2958 266° West 395 455 36,000  Level Kansas City Center
Sat 08:59:27 PM 39.8542 -89.4406 266° West 397 457 36,000  Level Kansas City Center
Sat 09:00:29 PM 39.8456 -89.5825 266° West 395 455 36,000  Level Kansas City Center
Sat 09:01:30 PM 39.8392 -89.7269 267° West 397 457 36,000  Level Kansas City Center
Sat 09:02:29 PM 39.8417 -89.8700 271° West 396 456 36,000  Level Kansas City Center
Sat 09:03:32 PM 39.8433 -90.0156 271° West 399 459 36,000  Level Kansas City Center
Sat 09:04:33 PM 39.8447 -90.1606 271° West 399 459 36,000  Level Kansas City Center
Sat 09:05:33 PM 39.8453 -90.3056 270° West 399 459 36,000  Level Kansas City Center
Sat 09:06:35 PM 39.8464 -90.4500 271° West 399 459 36,000  Level Kansas City Center
Sat 09:07:37 PM 39.8475 -90.5939 271° West 399 459 36,000  Level Kansas City Center
Sat 09:08:36 PM 39.8481 -90.7397 270° West 400 460 36,000  Level Kansas City Center
Sat 09:09:39 PM 39.8478 -90.9125 270° West 399 459 36,000  Level Kansas City Center
Sat 09:10:39 PM 39.8475 -91.0414 270° West 396 456 36,000  Level Kansas City Center
Sat 09:11:39 PM 39.8472 -91.1858 270° West 400 460 36,000  Level Kansas City Center
Sat 09:12:40 PM 39.8464 -91.3289 270° West 398 458 36,000  Level Kansas City Center
Sat 09:13:43 PM 39.8350 -91.4717 264° West 399 459 36,000  Level Kansas City Center
Sat 09:14:44 PM 39.8206 -91.6469 264° West 402 463 36,000  Level Kansas City Center
Sat 09:15:45 PM 39.8089 -91.7928 264° West 405 466 36,000  Level Kansas City Center
Sat 09:16:46 PM 39.7986 -91.9381 265° West 406 467 36,000  Level Kansas City Center
Sat 09:17:46 PM 39.7867 -92.0836 264° West 406 467 36,000  Level Kansas City Center
Sat 09:18:48 PM 39.7761 -92.2269 265° West 405 466 36,000 -738 Level Kansas City Center
Sat 09:19:48 PM 39.7639 -92.3686 264° West 400 460 34,500 -2,000 Descending Kansas City Center
Sat 09:20:48 PM 39.7522 -92.5078 264° West 395 455 32,000 -2,244 Descending Kansas City Center
Sat 09:21:51 PM 39.7414 -92.6400 264° West 384 442 29,900 -2,000 Descending Kansas City Center
Sat 09:22:51 PM 39.7286 -92.7806 263° West 385 443 27,900 -2,016 Descending Kansas City Center
Sat 09:23:53 PM 39.7153 -92.9358 264° West 414 476 25,800 -2,195 Descending Kansas City Center
Sat 09:24:54 PM 39.7019 -93.0825 263° West 417 480 23,400 -2,361 Descending Kansas City Center
Sat 09:25:55 PM 39.6892 -93.2281 264° West 409 471 21,000 -2,420 Descending Kansas City Center
Sat 09:26:53 PM 39.6731 -93.3953 263° West 394 453 18,600 -2,132 Descending Kansas City Center
Sat 09:27:56 PM 39.6617 -93.5319 264° West 389 448 16,700 -1,967 Descending Kansas City Center
Sat 09:28:55 PM 39.6500 -93.6622 263° West 370 426 14,600 -2,150 Descending Kansas City Center
Sat 09:29:56 PM 39.6381 -93.7933 263° West 361 415 12,400 -2,066 Descending Kansas City Center
Sat 09:30:57 PM 39.6175 -93.9072 257° West 343 395 10,400 -1,180 Descending Kansas City Center
Sat 09:31:58 PM 39.5642 -94.0222 239° Southwest 326 375 10,000 -194 Descending Kansas City Center
Sat 09:33:01 PM 39.5428 -94.1319 256° West 326 375 10,000 -195 Level Kansas City Center
Sat 09:34:01 PM 39.5225 -94.2258 254° West 277 319 9,600 -1,041 Descending Kansas City Center
Sat 09:35:02 PM 39.5019 -94.3231 255° West 253 291 7,900 -1,550 Descending Kansas City Center
Sat 09:36:01 PM 39.4842 -94.4047 254° West 248 285 6,500 -1,426 Descending Kansas City Center
Sat 09:37:04 PM 39.4672 -94.4861 255° West 245 282 5,000 -1,721 Descending Kansas City Center
Sat 09:38:03 PM 39.4433 -94.5750 251° West 235 270 3,000 -2,034 Descending Kansas City Center

Login

Don't have an account? Register now (free) for customized features, flight alerts, and more!